Time;durP1;ratioP1;P1;durP2;ratioP2;P2;SDS_P1;SDS_P2;PMS_P1;PMS_P2;Temp;Humidity;BMP_temperature;BMP_pressure;BME280_temperature;BME280_humidity;BME280_pressure;Samples;Min_cycle;Max_cycle;Signal;HPM_P1;HPM_P2
2022/06/16 00:01:36;;;;;;;6.43;2.90;;;;;;;;;;4993250;28;20517;-67
2022/06/16 00:04:02;;;;;;;7.35;2.90;;;;;;;;;;4992917;28;20037;-68
2022/06/16 00:06:28;;;;;;;6.60;2.50;;;;;;;;;;4993042;28;20538;-67
2022/06/16 00:08:53;;;;;;;7.03;2.60;;;;;;;;;;4992540;28;20028;-67
2022/06/16 00:11:22;;;;;;;5.22;2.70;;;;;;;;;;4992789;28;20109;-67
2022/06/16 00:13:49;;;;;;;6.30;2.92;;;;;;;;;;4992725;28;20030;-67
2022/06/16 00:16:15;;;;;;;8.05;3.25;;;;;;;;;;4992690;28;20042;-68
2022/06/16 00:18:41;;;;;;;6.25;2.65;;;;;;;;;;4992248;28;20045;-68
2022/06/16 00:21:07;;;;;;;5.30;2.70;;;;;;;;;;4992992;28;20046;-68
2022/06/16 00:23:33;;;;;;;4.60;2.40;;;;;;;;;;4994053;28;20037;-67
2022/06/16 00:25:59;;;;;;;7.93;2.80;;;;;;;;;;4996769;28;20109;-67
2022/06/16 00:28:25;;;;;;;7.72;3.15;;;;;;;;;;4996687;28;20109;-68
2022/06/16 00:30:50;;;;;;;4.70;2.47;;;;;;;;;;4995627;28;20425;-68
2022/06/16 00:33:16;;;;;;;5.03;2.70;;;;;;;;;;4996847;28;20034;-68
2022/06/16 00:35:42;;;;;;;4.65;2.40;;;;;;;;;;4996618;28;20487;-68
2022/06/16 00:38:08;;;;;;;5.35;2.90;;;;;;;;;;4996845;28;20053;-68
2022/06/16 00:40:33;;;;;;;5.25;2.60;;;;;;;;;;4996293;28;20058;-69
2022/06/16 00:42:59;;;;;;;6.20;2.58;;;;;;;;;;4996507;28;20025;-68
2022/06/16 00:45:44;;;;;;;7.45;3.20;;;;;;;;;;4996227;28;20050;-68
2022/06/16 00:48:15;;;;;;;6.18;2.50;;;;;;;;;;4996614;28;20037;-67
2022/06/16 00:50:41;;;;;;;;;;;;;;;;;;4996290;28;20040;-67
2022/06/16 00:53:07;;;;;;;6.85;2.90;;;;;;;;;;4996426;28;19917;-68
2022/06/16 00:55:34;;;;;;;7.30;2.97;;;;;;;;;;4996408;28;20066;-67
2022/06/16 00:58:00;;;;;;;7.10;2.85;;;;;;;;;;4996213;28;20037;-68
2022/06/16 01:03:10;;;;;;;6.20;2.78;;;;;;;;;;4996320;28;20113;-68
2022/06/16 01:05:35;;;;;;;4.00;2.90;;;;;;;;;;4996240;28;20169;-68
2022/06/16 01:08:04;;;;;;;5.53;2.83;;;;;;;;;;4996180;28;20105;-68
2022/06/16 01:10:37;;;;;;;7.63;2.88;;;;;;;;;;4996190;28;20321;-67
2022/06/16 01:13:43;;;;;;;8.43;3.25;;;;;;;;;;4995873;28;20034;-65
2022/06/16 01:16:21;;;;;;;6.57;3.13;;;;;;;;;;4995884;28;20468;-69
2022/06/16 01:19:24;;;;;;;6.78;3.42;;;;;;;;;;4995759;28;20042;-67
2022/06/16 01:22:06;;;;;;;7.22;3.08;;;;;;;;;;4995964;28;20038;-70
2022/06/16 01:24:53;;;;;;;9.88;3.88;;;;;;;;;;4996020;28;20026;-69
2022/06/16 01:27:37;;;;;;;7.68;3.53;;;;;;;;;;4993986;28;20038;-69
2022/06/16 01:30:31;;;;;;;5.68;3.22;;;;;;;;;;4995788;28;20467;-68
2022/06/16 01:33:10;;;;;;;6.47;3.55;;;;;;;;;;4995909;28;20110;-68
2022/06/16 01:36:10;;;;;;;7.85;3.15;;;;;;;;;;4994660;28;20018;-66
2022/06/16 01:38:56;;;;;;;5.38;3.03;;;;;;;;;;4995559;28;20408;-66
2022/06/16 01:41:39;;;;;;;5.40;3.13;;;;;;;;;;4995074;28;20133;-68
2022/06/16 01:44:18;;;;;;;5.45;2.90;;;;;;;;;;4995388;28;20026;-66
2022/06/16 01:46:46;;;;;;;8.35;3.55;;;;;;;;;;4995629;28;20018;-66
2022/06/16 01:49:23;;;;;;;8.07;3.83;;;;;;;;;;4995299;28;20373;-66
2022/06/16 01:51:57;;;;;;;6.80;3.50;;;;;;;;;;4994428;28;20045;-66
2022/06/16 01:54:31;;;;;;;10.38;4.40;;;;;;;;;;4995278;28;20029;-66
2022/06/16 01:57:06;;;;;;;7.13;3.85;;;;;;;;;;4995200;28;20053;-67
2022/06/16 01:59:38;;;;;;;8.18;3.50;;;;;;;;;;4995018;28;20035;-67
2022/06/16 02:02:09;;;;;;;5.72;3.22;;;;;;;;;;4995258;28;20031;-66
2022/06/16 02:04:43;;;;;;;9.60;4.25;;;;;;;;;;4995234;28;20488;-66
2022/06/16 02:07:17;;;;;;;6.70;3.55;;;;;;;;;;4995086;28;20399;-66
2022/06/16 02:09:46;;;;;;;8.18;3.90;;;;;;;;;;4994922;28;20026;-67
2022/06/16 02:13:04;;;;;;;5.47;3.67;;;;;;;;;;4994973;28;20030;-68
2022/06/16 02:15:25;;;;;;;;;;;;;;;;;;4988193;28;20527;-67
2022/06/16 02:17:52;;;;;;;7.43;3.45;;;;;;;;;;4994522;28;19917;-67
2022/06/16 02:20:20;;;;;;;7.47;3.60;;;;;;;;;;4994412;28;20022;-67
2022/06/16 02:22:45;;;;;;;6.13;3.95;;;;;;;;;;4994844;28;20535;-66
2022/06/16 02:25:11;;;;;;;5.28;3.33;;;;;;;;;;4994517;28;20105;-66
2022/06/16 02:27:36;;;;;;;6.72;3.78;;;;;;;;;;4994697;28;20031;-65
2022/06/16 02:30:03;;;;;;;8.15;3.63;;;;;;;;;;4994666;28;20030;-66
2022/06/16 02:32:55;;;;;;;6.10;3.70;;;;;;;;;;4992119;28;20033;-66
2022/06/16 02:35:26;;;;;;;8.60;3.63;;;;;;;;;;4973209;28;20085;-67
2022/06/16 02:38:26;;;;;;;7.55;3.60;;;;;;;;;;4974669;28;20026;-65
2022/06/16 02:41:12;;;;;;;6.90;3.58;;;;;;;;;;4975030;28;20480;-66
2022/06/16 02:43:49;;;;;;;7.88;4.10;;;;;;;;;;4934317;29;20043;-67
2022/06/16 02:46:21;;;;;;;6.90;3.53;;;;;;;;;;4934282;29;20382;-66
2022/06/16 02:48:58;;;;;;;6.95;3.45;;;;;;;;;;4934321;29;20035;-66
2022/06/16 02:51:42;;;;;;;7.25;3.63;;;;;;;;;;4934251;29;20052;-65
2022/06/16 02:54:27;;;;;;;7.40;3.90;;;;;;;;;;4934078;29;20126;-66
2022/06/16 02:57:05;;;;;;;8.65;3.97;;;;;;;;;;4934049;29;20046;-66
2022/06/16 03:00:08;;;;;;;7.00;4.25;;;;;;;;;;4933909;29;20087;-67
2022/06/16 03:02:36;;;;;;;6.95;3.60;;;;;;;;;;4933570;29;20040;-68
2022/06/16 03:05:05;;;;;;;6.68;3.88;;;;;;;;;;4934153;29;20068;-67
2022/06/16 03:07:33;;;;;;;9.80;4.18;;;;;;;;;;4933710;29;20597;-67
2022/06/16 03:10:00;;;;;;;6.45;4.30;;;;;;;;;;4933898;29;20545;-67
2022/06/16 03:12:26;;;;;;;7.55;4.03;;;;;;;;;;4933358;29;20059;-67
2022/06/16 03:14:52;;;;;;;6.65;3.92;;;;;;;;;;4918164;29;20441;-66
2022/06/16 03:17:17;;;;;;;9.90;4.20;;;;;;;;;;4933426;29;20040;-67
2022/06/16 03:19:44;;;;;;;9.93;4.28;;;;;;;;;;4919657;29;20027;-67
2022/06/16 03:22:10;;;;;;;6.47;3.78;;;;;;;;;;4954877;28;20043;-66
2022/06/16 03:24:36;;;;;;;8.40;3.80;;;;;;;;;;4954780;28;20106;-68
2022/06/16 03:27:01;;;;;;;7.32;3.67;;;;;;;;;;4954632;28;20050;-67
2022/06/16 03:29:27;;;;;;;6.55;4.10;;;;;;;;;;4954703;28;20037;-66
2022/06/16 03:31:53;;;;;;;9.20;3.85;;;;;;;;;;4954961;28;20094;-67
2022/06/16 03:34:18;;;;;;;10.07;3.83;;;;;;;;;;4955007;28;20489;-68
2022/06/16 03:36:44;;;;;;;7.57;3.88;;;;;;;;;;4953834;28;20126;-67
2022/06/16 03:39:10;;;;;;;6.45;3.95;;;;;;;;;;4954284;28;20051;-68
2022/06/16 03:41:35;;;;;;;5.82;3.78;;;;;;;;;;4954120;28;20062;-67
2022/06/16 03:44:01;;;;;;;8.25;3.55;;;;;;;;;;4952861;29;20039;-67
2022/06/16 03:46:26;;;;;;;9.65;3.97;;;;;;;;;;4954720;28;20028;-67
2022/06/16 03:48:52;;;;;;;6.72;3.90;;;;;;;;;;4954675;28;20024;-68
2022/06/16 03:51:19;;;;;;;5.68;3.60;;;;;;;;;;4972546;28;20041;-66
2022/06/16 03:53:44;;;;;;;7.72;3.65;;;;;;;;;;4974014;28;20019;-66
2022/06/16 03:56:11;;;;;;;6.18;3.53;;;;;;;;;;4973926;28;20469;-65
2022/06/16 03:58:37;;;;;;;7.68;3.58;;;;;;;;;;4973234;28;20428;-67
2022/06/16 04:01:03;;;;;;;7.05;3.42;;;;;;;;;;4973183;28;20038;-67
2022/06/16 04:06:13;;;;;;;7.70;3.20;;;;;;;;;;4973884;28;20113;-66
2022/06/16 04:08:40;;;;;;;10.48;3.83;;;;;;;;;;4973127;28;20034;-67
2022/06/16 04:13:50;;;;;;;6.30;3.08;;;;;;;;;;4973532;28;20038;-68
2022/06/16 04:16:16;;;;;;;8.45;3.53;;;;;;;;;;4973244;28;20055;-68
2022/06/16 04:18:42;;;;;;;6.72;3.08;;;;;;;;;;4973598;28;20058;-67
2022/06/16 04:21:09;;;;;;;13.00;3.85;;;;;;;;;;4973394;28;20019;-67
2022/06/16 04:23:35;;;;;;;11.13;3.38;;;;;;;;;;4973810;28;20070;-66
2022/06/16 04:26:01;;;;;;;10.48;3.60;;;;;;;;;;4973572;28;20026;-66
2022/06/16 04:28:26;;;;;;;13.93;3.60;;;;;;;;;;4973767;28;20381;-66
2022/06/16 04:30:52;;;;;;;8.93;3.20;;;;;;;;;;4973546;28;20019;-67
2022/06/16 04:33:18;;;;;;;7.70;3.25;;;;;;;;;;4973573;28;20031;-66
2022/06/16 04:35:44;;;;;;;6.18;3.05;;;;;;;;;;4973290;28;20453;-67
2022/06/16 04:38:10;;;;;;;9.60;3.45;;;;;;;;;;4973537;28;20080;-66
2022/06/16 04:40:35;;;;;;;9.90;3.33;;;;;;;;;;4973460;28;20389;-67
2022/06/16 04:43:01;;;;;;;7.00;2.92;;;;;;;;;;4973528;28;20049;-67
2022/06/16 04:45:27;;;;;;;7.15;3.20;;;;;;;;;;4973383;28;20472;-66
2022/06/16 04:47:52;;;;;;;6.32;3.25;;;;;;;;;;4973434;28;20030;-66
2022/06/16 04:50:18;;;;;;;7.18;3.10;;;;;;;;;;4973262;28;20110;-65
2022/06/16 04:52:47;;;;;;;13.27;3.97;;;;;;;;;;4973296;28;20492;-67
2022/06/16 04:55:15;;;;;;;9.13;3.55;;;;;;;;;;4973477;28;20073;-67
2022/06/16 04:57:41;;;;;;;6.82;3.22;;;;;;;;;;4973393;28;20030;-67
2022/06/16 05:00:10;;;;;;;8.27;3.20;;;;;;;;;;4973324;28;20116;-67
2022/06/16 05:02:36;;;;;;;6.15;3.03;;;;;;;;;;4973345;28;20787;-67
2022/06/16 05:05:02;;;;;;;5.82;3.15;;;;;;;;;;4973162;28;20042;-68
2022/06/16 05:07:28;;;;;;;7.72;3.30;;;;;;;;;;4973037;28;20498;-66
2022/06/16 05:09:53;;;;;;;9.05;3.30;;;;;;;;;;4974395;28;20105;-67
2022/06/16 05:12:19;;;;;;;6.05;3.47;;;;;;;;;;4976769;28;20037;-67
2022/06/16 05:14:45;;;;;;;7.50;3.38;;;;;;;;;;4976702;28;20023;-67
2022/06/16 05:17:10;;;;;;;6.50;3.10;;;;;;;;;;4981527;28;20480;-66
2022/06/16 05:19:36;;;;;;;4.93;2.88;;;;;;;;;;4995823;28;20027;-67
2022/06/16 05:22:05;;;;;;;6.80;2.78;;;;;;;;;;4995866;28;20460;-67
2022/06/16 05:24:31;;;;;;;6.28;2.80;;;;;;;;;;4996103;28;20022;-67
2022/06/16 05:26:57;;;;;;;7.53;3.42;;;;;;;;;;4995840;28;20021;-66
2022/06/16 05:29:22;;;;;;;6.53;2.90;;;;;;;;;;4995713;28;20031;-67
2022/06/16 05:31:48;;;;;;;6.43;2.65;;;;;;;;;;4995842;28;20033;-67
2022/06/16 05:34:14;;;;;;;5.40;2.45;;;;;;;;;;4995568;28;20026;-67
2022/06/16 05:36:39;;;;;;;6.30;2.28;;;;;;;;;;4995626;28;20030;-67
2022/06/16 05:39:05;;;;;;;6.47;3.10;;;;;;;;;;4995740;28;20040;-67
2022/06/16 05:41:30;;;;;;;4.53;2.10;;;;;;;;;;4995389;28;20030;-68
2022/06/16 05:43:56;;;;;;;3.72;1.88;;;;;;;;;;4995689;28;20026;-68
2022/06/16 05:46:23;;;;;;;3.78;2.25;;;;;;;;;;4994040;28;20023;-66
2022/06/16 05:48:50;;;;;;;5.60;2.30;;;;;;;;;;4995320;28;20468;-67
2022/06/16 05:51:17;;;;;;;3.67;1.50;;;;;;;;;;4995155;28;20065;-66
2022/06/16 05:53:43;;;;;;;2.65;1.60;;;;;;;;;;4995323;28;20027;-68
2022/06/16 05:56:09;;;;;;;4.93;1.48;;;;;;;;;;4995258;28;20030;-68
2022/06/16 05:58:35;;;;;;;4.22;1.60;;;;;;;;;;4995028;28;20022;-67
2022/06/16 06:01:01;;;;;;;3.33;1.60;;;;;;;;;;4994894;28;20117;-67
2022/06/16 06:03:27;;;;;;;4.53;1.40;;;;;;;;;;4995063;28;20542;-66
2022/06/16 06:05:52;;;;;;;3.17;1.33;;;;;;;;;;4995075;28;20030;-67
2022/06/16 06:16:36;;;;;;;5.25;1.50;;;;;;;;;;4994400;28;20081;-66
2022/06/16 06:19:27;;;;;;;3.10;1.60;;;;;;;;;;4994911;28;20034;-65
2022/06/16 06:22:02;;;;;;;5.00;1.35;;;;;;;;;;4993624;28;20049;-65
2022/06/16 06:24:34;;;;;;;2.70;1.30;;;;;;;;;;4994813;28;20105;-65
2022/06/16 06:27:04;;;;;;;3.45;1.60;;;;;;;;;;4994765;28;20491;-65
2022/06/16 06:29:30;;;;;;;4.30;1.33;;;;;;;;;;4993408;28;20137;-65
2022/06/16 06:31:57;;;;;;;3.80;1.40;;;;;;;;;;4994303;28;20057;-67
2022/06/16 06:34:23;;;;;;;5.90;1.40;;;;;;;;;;4994778;28;20030;-66
2022/06/16 06:36:49;;;;;;;4.28;1.30;;;;;;;;;;4994534;28;20053;-68
2022/06/16 06:39:15;;;;;;;5.30;1.42;;;;;;;;;;4994337;28;20057;-67
2022/06/16 06:41:40;;;;;;;4.47;1.60;;;;;;;;;;4994378;28;20031;-68
2022/06/16 06:44:06;;;;;;;4.00;1.70;;;;;;;;;;4994426;28;20030;-66
2022/06/16 06:46:32;;;;;;;3.50;1.23;;;;;;;;;;4994141;28;20030;-66
2022/06/16 06:48:57;;;;;;;3.40;1.40;;;;;;;;;;4994207;28;20030;-68
2022/06/16 06:51:23;;;;;;;4.70;1.45;;;;;;;;;;4993828;28;20027;-67
2022/06/16 06:53:48;;;;;;;3.85;1.50;;;;;;;;;;4994353;28;20570;-66
2022/06/16 06:56:15;;;;;;;3.13;1.30;;;;;;;;;;4994168;28;20057;-66
2022/06/16 06:58:41;;;;;;;5.35;1.50;;;;;;;;;;4994035;28;20075;-66
2022/06/16 07:01:07;;;;;;;3.80;1.60;;;;;;;;;;4993745;28;20063;-67
2022/06/16 07:03:32;;;;;;;3.65;1.50;;;;;;;;;;4993940;28;20022;-67
2022/06/16 07:06:01;;;;;;;3.17;1.58;;;;;;;;;;4993979;28;20499;-67
2022/06/16 07:08:27;;;;;;;4.75;1.50;;;;;;;;;;4993687;28;20025;-68
2022/06/16 07:10:53;;;;;;;6.13;1.58;;;;;;;;;;4993886;28;20038;-68
2022/06/16 07:13:19;;;;;;;6.32;1.52;;;;;;;;;;4993757;28;20041;-68
2022/06/16 07:15:44;;;;;;;3.00;1.35;;;;;;;;;;4972977;28;20465;-66
2022/06/16 07:18:10;;;;;;;3.65;1.50;;;;;;;;;;4987367;28;20080;-67
2022/06/16 07:20:36;;;;;;;6.18;1.70;;;;;;;;;;4993463;28;20121;-69
2022/06/16 07:23:01;;;;;;;8.05;1.98;;;;;;;;;;4993752;28;20034;-66
2022/06/16 07:25:27;;;;;;;4.20;1.70;;;;;;;;;;4992300;28;20034;-67
2022/06/16 07:27:53;;;;;;;6.32;1.83;;;;;;;;;;4993402;28;20038;-67
2022/06/16 07:30:21;;;;;;;5.40;2.10;;;;;;;;;;4981546;28;20058;-67
2022/06/16 07:32:48;;;;;;;6.90;2.90;;;;;;;;;;4963366;28;20055;-66
2022/06/16 07:35:20;;;;;;;9.15;2.80;;;;;;;;;;4960937;28;20031;-67
2022/06/16 07:37:46;;;;;;;11.93;3.55;;;;;;;;;;4964075;28;20026;-66
2022/06/16 07:40:14;;;;;;;11.15;3.90;;;;;;;;;;4962633;28;20041;-68
2022/06/16 07:42:41;;;;;;;8.77;4.18;;;;;;;;;;4961892;28;20027;-68
2022/06/16 07:45:08;;;;;;;7.57;3.60;;;;;;;;;;4962836;28;20030;-68
2022/06/16 07:47:34;;;;;;;11.77;5.18;;;;;;;;;;4961663;28;20086;-67
2022/06/16 07:50:01;;;;;;;8.63;3.33;;;;;;;;;;4961593;28;20440;-68
2022/06/16 07:52:29;;;;;;;10.25;3.80;;;;;;;;;;4962728;28;20061;-68
2022/06/16 07:54:54;;;;;;;12.18;3.97;;;;;;;;;;4963860;28;20023;-68
2022/06/16 07:57:21;;;;;;;11.73;4.60;;;;;;;;;;4961915;28;20070;-67
2022/06/16 07:59:51;;;;;;;4.70;2.30;;;;;;;;;;4962696;28;20106;-69
2022/06/16 08:02:17;;;;;;;5.25;2.55;;;;;;;;;;4963526;28;20030;-69
2022/06/16 08:04:42;;;;;;;3.50;2.05;;;;;;;;;;4961820;28;20027;-68
2022/06/16 08:07:08;;;;;;;6.10;2.10;;;;;;;;;;4962878;28;20019;-64
2022/06/16 08:09:33;;;;;;;6.55;1.75;;;;;;;;;;4963357;28;20055;-66
2022/06/16 08:12:03;;;;;;;3.75;1.80;;;;;;;;;;4961349;28;20062;-66
2022/06/16 08:14:32;;;;;;;4.20;1.77;;;;;;;;;;4962628;28;20448;-66
2022/06/16 08:16:59;;;;;;;4.03;1.67;;;;;;;;;;4964060;28;20043;-68
2022/06/16 08:19:25;;;;;;;3.38;1.70;;;;;;;;;;4962048;28;20118;-67
2022/06/16 08:21:51;;;;;;;5.05;1.55;;;;;;;;;;4962365;28;20131;-68
2022/06/16 08:24:17;;;;;;;4.47;1.85;;;;;;;;;;4961537;28;20110;-65
2022/06/16 08:26:44;;;;;;;4.75;1.50;;;;;;;;;;4962266;28;20022;-67
2022/06/16 08:29:12;;;;;;;4.90;1.73;;;;;;;;;;4962564;28;20102;-66
2022/06/16 08:31:38;;;;;;;5.80;1.90;;;;;;;;;;4961020;28;20031;-66
2022/06/16 08:34:04;;;;;;;3.85;1.70;;;;;;;;;;4953223;28;20023;-66
2022/06/16 08:36:30;;;;;;;3.55;1.50;;;;;;;;;;4953330;28;20073;-65
2022/06/16 08:38:56;;;;;;;2.97;1.35;;;;;;;;;;4953178;28;20035;-68
2022/06/16 08:41:45;;;;;;;5.57;1.42;;;;;;;;;;4952961;28;20082;-68
2022/06/16 08:44:27;;;;;;;3.17;1.23;;;;;;;;;;4953631;28;20074;-68
2022/06/16 08:47:04;;;;;;;6.70;1.48;;;;;;;;;;4956641;28;20461;-68
2022/06/16 08:49:40;;;;;;;4.32;1.30;;;;;;;;;;4956773;28;20114;-66
2022/06/16 08:52:29;;;;;;;4.30;1.30;;;;;;;;;;4956709;28;20034;-66
2022/06/16 08:55:02;;;;;;;2.92;1.30;;;;;;;;;;4970937;28;20031;-66
2022/06/16 08:57:58;;;;;;;4.82;1.60;;;;;;;;;;4968350;28;20109;-65
2022/06/16 09:00:34;;;;;;;6.40;1.40;;;;;;;;;;4956233;29;20035;-66
2022/06/16 09:03:09;;;;;;;3.08;1.25;;;;;;;;;;4956280;28;20019;-65
2022/06/16 09:05:53;;;;;;;4.38;1.70;;;;;;;;;;4956452;28;20050;-66
2022/06/16 09:08:38;;;;;;;2.80;1.27;;;;;;;;;;4969166;28;20034;-67
2022/06/16 09:11:13;;;;;;;4.10;1.60;;;;;;;;;;4975590;28;20578;-66
2022/06/16 09:15:10;;;;;;;3.58;1.40;;;;;;;;;;4975523;28;20046;-67
2022/06/16 09:17:21;;;;;;;5.68;1.83;;;;;;;;;;4969965;28;20047;-67
2022/06/16 09:20:21;;;;;;;4.15;1.20;;;;;;;;;;4956257;28;20055;-68
2022/06/16 09:22:49;;;;;;;3.08;1.33;;;;;;;;;;4952466;28;20043;-67
2022/06/16 09:25:51;;;;;;;5.03;1.40;;;;;;;;;;4956096;28;20058;-67
2022/06/16 09:28:35;;;;;;;12.02;5.65;;;;;;;;;;4933934;29;20035;-67
2022/06/16 09:31:06;;;;;;;3.97;1.65;;;;;;;;;;4932673;29;20086;-67
2022/06/16 09:33:37;;;;;;;3.03;1.20;;;;;;;;;;4934645;29;20062;-67
2022/06/16 09:36:18;;;;;;;5.28;1.55;;;;;;;;;;4939799;29;20536;-68
2022/06/16 09:39:04;;;;;;;4.82;1.45;;;;;;;;;;4935301;29;20079;-68
2022/06/16 09:44:46;;;;;;;12.45;3.28;;;;;;;;;;4935934;29;20079;-67
2022/06/16 09:47:14;;;;;;;;;;;;;;;;;;4935883;29;20111;-68
2022/06/16 09:49:45;;;;;;;7.70;2.47;;;;;;;;;;4935337;29;20045;-68
2022/06/16 09:52:23;;;;;;;5.13;1.88;;;;;;;;;;4935389;29;20035;-66
2022/06/16 09:54:56;;;;;;;8.60;2.65;;;;;;;;;;4934927;29;20056;-67
2022/06/16 09:57:50;;;;;;;2.97;1.30;;;;;;;;;;4933685;29;20036;-65
2022/06/16 10:00:20;;;;;;;3.83;1.60;;;;;;;;;;4859974;29;20069;-67
2022/06/16 10:02:53;;;;;;;10.63;2.95;;;;;;;;;;4904217;29;20040;-67
2022/06/16 10:05:40;;;;;;;6.47;2.25;;;;;;;;;;4915142;29;20076;-67
2022/06/16 10:08:26;;;;;;;7.70;2.17;;;;;;;;;;4914432;29;20040;-68
2022/06/16 10:11:01;;;;;;;6.55;2.10;;;;;;;;;;4900057;29;20036;-68
2022/06/16 10:13:41;;;;;;;4.97;2.03;;;;;;;;;;4916086;29;20099;-68
2022/06/16 10:16:15;;;;;;;6.68;1.48;;;;;;;;;;4915799;29;20103;-66
2022/06/16 10:18:42;;;;;;;3.58;1.60;;;;;;;;;;4899806;29;20139;-66
2022/06/16 10:21:09;;;;;;;3.03;1.30;;;;;;;;;;4915538;29;20070;-67
2022/06/16 10:23:43;;;;;;;3.97;1.67;;;;;;;;;;4915425;29;20040;-66
2022/06/16 10:26:10;;;;;;;6.68;2.42;;;;;;;;;;4915564;29;20187;-68
2022/06/16 10:28:38;;;;;;;3.85;1.80;;;;;;;;;;4915584;29;20066;-67
2022/06/16 10:31:06;;;;;;;7.05;1.83;;;;;;;;;;4915247;29;20044;-66
2022/06/16 10:33:47;;;;;;;3.38;1.30;;;;;;;;;;4899588;29;20032;-66
2022/06/16 10:36:22;;;;;;;7.30;1.75;;;;;;;;;;4921284;28;20072;-67
2022/06/16 10:39:15;;;;;;;5.57;2.15;;;;;;;;;;4974457;28;20166;-68
2022/06/16 10:41:59;;;;;;;7.78;1.63;;;;;;;;;;4974437;28;20333;-67
2022/06/16 10:44:28;;;;;;;7.30;1.50;;;;;;;;;;4975041;28;20027;-67
2022/06/16 10:47:01;;;;;;;7.05;1.60;;;;;;;;;;4974932;28;20074;-68
2022/06/16 10:49:39;;;;;;;5.60;1.52;;;;;;;;;;4974683;28;20030;-66
2022/06/16 10:52:14;;;;;;;5.18;1.60;;;;;;;;;;4974778;28;20033;-66
2022/06/16 10:55:03;;;;;;;3.47;1.38;;;;;;;;;;4973321;28;20034;-68
2022/06/16 10:57:40;;;;;;;8.73;1.88;;;;;;;;;;4974745;28;20089;-68
2022/06/16 11:00:20;;;;;;;7.13;1.50;;;;;;;;;;4974707;28;20488;-66
2022/06/16 11:03:09;;;;;;;4.05;1.35;;;;;;;;;;4974695;28;20035;-67
2022/06/16 11:05:59;;;;;;;5.47;1.23;;;;;;;;;;4974647;28;20507;-67
2022/06/16 11:08:33;;;;;;;4.80;1.92;;;;;;;;;;4974314;28;20073;-67
2022/06/16 11:11:00;;;;;;;4.55;1.70;;;;;;;;;;4974606;28;20039;-67
2022/06/16 11:13:32;;;;;;;4.20;1.42;;;;;;;;;;4974417;28;20026;-70
2022/06/16 11:15:59;;;;;;;5.53;1.70;;;;;;;;;;4974211;28;20027;-68
2022/06/16 11:18:28;;;;;;;5.07;1.80;;;;;;;;;;4988209;28;20037;-67
2022/06/16 11:20:58;;;;;;;2.85;1.50;;;;;;;;;;4993645;28;20026;-69
2022/06/16 11:23:41;;;;;;;6.45;2.13;;;;;;;;;;4993755;28;20046;-67
2022/06/16 11:26:28;;;;;;;5.18;1.90;;;;;;;;;;4993836;28;20026;-67
2022/06/16 11:29:22;;;;;;;3.28;1.67;;;;;;;;;;4992461;28;20027;-67
2022/06/16 11:32:00;;;;;;;6.97;1.63;;;;;;;;;;4993788;28;20034;-66
2022/06/16 11:34:30;;;;;;;2.70;1.42;;;;;;;;;;4993432;28;20404;-67
2022/06/16 11:37:05;;;;;;;6.82;2.00;;;;;;;;;;4993658;28;20383;-67
2022/06/16 11:39:36;;;;;;;5.10;1.50;;;;;;;;;;4993341;28;20030;-66
2022/06/16 11:42:02;;;;;;;12.40;1.60;;;;;;;;;;4993387;28;20376;-67
2022/06/16 11:44:55;;;;;;;4.05;1.48;;;;;;;;;;4993565;28;20088;-67
2022/06/16 11:47:35;;;;;;;5.28;1.58;;;;;;;;;;4993328;28;20029;-67
2022/06/16 11:50:10;;;;;;;3.80;1.40;;;;;;;;;;4993098;28;20498;-66
2022/06/16 11:53:04;;;;;;;4.88;1.40;;;;;;;;;;4993378;28;20533;-67
2022/06/16 11:55:38;;;;;;;4.65;1.40;;;;;;;;;;4992874;28;20672;-64
2022/06/16 11:58:21;;;;;;;4.72;1.27;;;;;;;;;;4993135;28;20026;-65
2022/06/16 12:01:05;;;;;;;3.17;1.33;;;;;;;;;;4975947;28;20109;-66
2022/06/16 12:03:53;;;;;;;12.23;1.73;;;;;;;;;;4973488;28;20038;-66
2022/06/16 12:06:37;;;;;;;2.75;1.20;;;;;;;;;;4974160;28;20033;-68
2022/06/16 12:09:15;;;;;;;4.05;1.45;;;;;;;;;;4973912;28;20412;-67
2022/06/16 12:11:50;;;;;;;6.57;1.50;;;;;;;;;;4973779;28;20395;-69
2022/06/16 12:14:28;;;;;;;7.60;2.70;;;;;;;;;;4973799;28;20034;-68
2022/06/16 12:17:25;;;;;;;15.50;6.00;;;;;;;;;;4973432;28;20047;-69
2022/06/16 12:20:02;;;;;;;6.70;1.35;;;;;;;;;;4974979;28;20432;-69
2022/06/16 12:22:32;;;;;;;3.22;1.42;;;;;;;;;;4976440;28;20081;-68
2022/06/16 12:25:06;;;;;;;3.58;1.15;;;;;;;;;;4977657;28;20105;-68
2022/06/16 12:27:51;;;;;;;4.28;1.65;;;;;;;;;;4977418;28;20022;-68
2022/06/16 12:30:24;;;;;;;5.53;1.38;;;;;;;;;;4977651;28;20023;-68
2022/06/16 12:33:16;;;;;;;5.15;1.60;;;;;;;;;;4975888;28;20041;-66
2022/06/16 12:35:47;;;;;;;4.65;1.50;;;;;;;;;;4977494;28;20611;-67
2022/06/16 12:38:25;;;;;;;2.45;1.20;;;;;;;;;;4977475;28;20113;-66
2022/06/16 12:40:55;;;;;;;8.05;1.70;;;;;;;;;;4976006;28;20473;-65
2022/06/16 12:43:29;;;;;;;12.68;2.47;;;;;;;;;;4977227;28;20138;-65
2022/06/16 12:46:28;;;;;;;48.08;8.20;;;;;;;;;;4977306;28;20403;-66
2022/06/16 12:49:11;;;;;;;16.42;3.90;;;;;;;;;;4974077;28;20129;-65
2022/06/16 12:51:49;;;;;;;5.95;2.20;;;;;;;;;;4977140;28;20034;-70
2022/06/16 12:54:24;;;;;;;4.07;1.38;;;;;;;;;;4976746;28;20031;-71
2022/06/16 12:56:57;;;;;;;5.65;1.80;;;;;;;;;;4975345;28;20031;-70
2022/06/16 12:59:50;;;;;;;4.22;1.50;;;;;;;;;;4972880;28;20485;-69
2022/06/16 13:02:21;;;;;;;7.78;1.58;;;;;;;;;;4963964;28;20047;-70
2022/06/16 13:04:48;;;;;;;3.65;1.15;;;;;;;;;;4976711;28;20388;-71
2022/06/16 13:07:18;;;;;;;4.10;1.27;;;;;;;;;;4976024;28;20035;-70
2022/06/16 13:09:44;;;;;;;2.97;1.10;;;;;;;;;;4976426;28;20082;-71
2022/06/16 13:12:18;;;;;;;2.97;1.30;;;;;;;;;;4976672;28;20566;-70
2022/06/16 13:14:55;;;;;;;4.80;1.55;;;;;;;;;;4976651;28;20469;-70
2022/06/16 13:17:27;;;;;;;4.43;1.08;;;;;;;;;;4975959;28;20153;-69
2022/06/16 13:19:57;;;;;;;5.55;1.58;;;;;;;;;;4976462;28;20031;-68
2022/06/16 13:22:39;;;;;;;6.35;3.20;;;;;;;;;;4974890;28;20085;-68
2022/06/16 13:25:09;;;;;;;4.75;1.80;;;;;;;;;;4976522;28;20445;-69
2022/06/16 13:27:37;;;;;;;4.40;1.20;;;;;;;;;;4976334;28;20031;-65
2022/06/16 13:30:06;;;;;;;10.18;1.73;;;;;;;;;;4976570;28;20030;-68
2022/06/16 13:32:49;;;;;;;4.30;1.45;;;;;;;;;;4976077;28;20039;-69
2022/06/16 13:35:15;;;;;;;4.40;1.30;;;;;;;;;;4976174;28;20034;-71
2022/06/16 13:37:45;;;;;;;5.75;1.58;;;;;;;;;;4975163;28;20039;-68
2022/06/16 13:40:10;;;;;;;9.35;1.77;;;;;;;;;;4976495;28;20476;-68
2022/06/16 13:42:56;;;;;;;2.92;1.20;;;;;;;;;;4976153;28;20085;-66
2022/06/16 13:45:31;;;;;;;3.15;1.20;;;;;;;;;;4975855;28;20031;-64
2022/06/16 13:48:06;;;;;;;4.57;2.42;;;;;;;;;;4975901;28;20085;-67
2022/06/16 13:50:57;;;;;;;6.25;1.52;;;;;;;;;;4975973;28;20429;-70
2022/06/16 13:53:24;;;;;;;3.63;1.30;;;;;;;;;;4976041;28;20434;-68
2022/06/16 13:55:52;;;;;;;3.33;1.45;;;;;;;;;;4975847;28;20039;-68
2022/06/16 13:58:35;;;;;;;3.65;1.30;;;;;;;;;;4976189;28;20350;-69
2022/06/16 14:01:03;;;;;;;4.57;1.30;;;;;;;;;;4975725;28;20035;-70
2022/06/16 14:03:30;;;;;;;4.38;1.27;;;;;;;;;;4976072;28;20037;-70
2022/06/16 14:06:06;;;;;;;3.83;1.30;;;;;;;;;;4975799;28;20027;-67
2022/06/16 14:08:33;;;;;;;2.30;1.10;;;;;;;;;;4975797;28;20034;-70
2022/06/16 14:11:19;;;;;;;4.60;1.17;;;;;;;;;;4975745;28;20400;-70
2022/06/16 14:14:05;;;;;;;7.32;1.30;;;;;;;;;;4975822;28;20027;-71
2022/06/16 14:16:42;;;;;;;3.88;1.40;;;;;;;;;;4975304;28;20468;-71
2022/06/16 14:19:34;;;;;;;2.72;1.23;;;;;;;;;;4995038;28;20034;-72
2022/06/16 14:22:14;;;;;;;2.50;1.17;;;;;;;;;;4994763;28;20030;-69
2022/06/16 14:25:10;;;;;;;4.10;1.50;;;;;;;;;;4994867;28;20022;-70
2022/06/16 14:28:11;;;;;;;3.75;1.15;;;;;;;;;;4994895;28;20513;-72
2022/06/16 14:30:42;;;;;;;5.25;1.60;;;;;;;;;;4972965;28;20477;-70
2022/06/16 14:33:37;;;;;;;4.20;1.33;;;;;;;;;;4972899;28;20039;-69
2022/06/16 14:36:11;;;;;;;4.93;1.52;;;;;;;;;;4972946;28;20437;-70
2022/06/16 14:38:46;;;;;;;4.13;1.50;;;;;;;;;;4973153;28;20035;-71
2022/06/16 14:41:20;;;;;;;4.32;1.30;;;;;;;;;;4972997;28;20038;-71
2022/06/16 14:44:14;;;;;;;3.15;1.30;;;;;;;;;;4972430;28;20046;-73
2022/06/16 14:46:54;;;;;;;5.53;1.50;;;;;;;;;;4934392;29;20086;-70
2022/06/16 14:49:31;;;;;;;3.50;1.38;;;;;;;;;;4934395;29;20036;-71
2022/06/16 14:51:59;;;;;;;4.88;1.65;;;;;;;;;;4934291;29;20035;-71
2022/06/16 14:54:30;;;;;;;4.82;1.80;;;;;;;;;;4934353;29;20035;-66
2022/06/16 14:56:58;;;;;;;5.10;1.40;;;;;;;;;;4934152;29;20043;-72
2022/06/16 14:59:32;;;;;;;3.47;1.20;;;;;;;;;;4933871;29;20040;-72
2022/06/16 15:02:02;;;;;;;6.82;1.50;;;;;;;;;;4934007;29;20051;-72
2022/06/16 15:04:31;;;;;;;3.55;1.25;;;;;;;;;;4934051;29;20036;-72
2022/06/16 15:06:59;;;;;;;4.87;1.40;;;;;;;;;;4934130;29;20059;-69
2022/06/16 15:09:34;;;;;;;5.68;1.48;;;;;;;;;;4934021;29;20389;-71
2022/06/16 15:12:01;;;;;;;6.97;1.52;;;;;;;;;;4933852;29;20048;-70
2022/06/16 15:14:29;;;;;;;3.00;1.20;;;;;;;;;;4934065;29;20036;-70
2022/06/16 15:19:49;;;;;;;6.00;1.25;;;;;;;;;;4933988;29;20038;-72
2022/06/16 15:22:18;;;;;;;4.38;1.55;;;;;;;;;;4933760;29;20055;-66
2022/06/16 15:24:53;;;;;;;6.93;1.50;;;;;;;;;;4992643;28;20431;-71
2022/06/16 15:27:29;;;;;;;7.45;1.45;;;;;;;;;;4993658;28;20033;-71
2022/06/16 15:29:56;;;;;;;5.28;1.48;;;;;;;;;;4992345;28;20530;-71
2022/06/16 15:38:07;;;;;;;2.67;1.33;;;;;;;;;;4993643;28;20030;-72
2022/06/16 15:40:34;;;;;;;3.50;1.15;;;;;;;;;;4993694;28;20049;-72
2022/06/16 15:42:59;;;;;;;5.72;1.38;;;;;;;;;;4993041;28;20101;-72
2022/06/16 15:45:25;;;;;;;6.63;1.35;;;;;;;;;;4991940;28;20118;-72